Flight Track Log - Related Links

Times and Time Zones

All times are in EDT time to prevent confusion due to time zone crossing. See the DCM6083 flight status page for this flight to view local times or setup timezone preferences in your user account.

Time Position Orientation Groundspeed Altitude Reporting Facility
EDT Latitude Longitude Course Direction KTS MPH feet Rate Location/Type
Wed 04:05:15 PM 31.9333 -102.3593 180° South  Level FlightAware Approximate
Wed 04:06:15 PM 31.9334 -102.4866 120° Southeast  Level FlightAware Approximate
Wed 04:06:58 PM 31.8717 -102.3594 270° West 279 321 11,300  Level Fort Worth Center
Wed 04:07:58 PM 31.8714 -102.4694 270° West 304 350 13,500 2,500 Climbing Fort Worth Center
Wed 04:08:58 PM 31.8708 -102.5844 270° West 336 387 16,300 2,950 Climbing Fort Worth Center
Wed 04:09:58 PM 31.8703 -102.7042 269° West 355 409 19,400 3,000 Climbing Fort Worth Center
Wed 04:10:58 PM 31.8692 -102.8264 268° West 367 422 22,300 2,750 Climbing Fort Worth Center
Wed 04:11:58 PM 31.8658 -102.9483 270° West 367 422 24,900 2,550 Climbing Fort Worth Center
Wed 04:12:58 PM 31.8664 -103.0756 270° West 372 428 27,400 2,631 Climbing Fort Worth Center
Wed 04:15:05 PM 31.8667 -103.3547 270° West 396 456 33,100 2,406 Climbing Albuquerque Center
Wed 04:16:05 PM 31.8667 -103.4817 270° West 390 449 34,900 1,650 Climbing Albuquerque Center
Wed 04:17:05 PM 31.8667 -103.6086 270° West 390 449 36,400 1,600 Climbing Albuquerque Center
Wed 04:18:05 PM 31.8664 -103.7381 270° West 390 449 38,100 1,750 Climbing Albuquerque Center
Wed 04:19:05 PM 31.8656 -103.8481 277° West 390 449 39,900 950 Climbing Albuquerque Center
Wed 04:20:05 PM 31.8794 -103.9747 280° West 387 445 40,000 50 Climbing Albuquerque Center
Wed 04:21:06 PM 31.9003 -104.1156 279° West 392 451 40,000  Level Albuquerque Center
Wed 04:22:05 PM 31.9183 -104.2517 281° West 412 474 40,000  Level Albuquerque Center
Wed 04:23:06 PM 31.9406 -104.3878 279° West 425 489 40,000  Level Albuquerque Center
Wed 04:24:05 PM 31.9583 -104.5217 279° West 425 489 40,000  Level Albuquerque Center
Wed 04:25:05 PM 31.9761 -104.6558 280° West 425 489 40,000 -50 Level Albuquerque Center
Wed 04:26:06 PM 31.9958 -104.7897 280° West 425 489 39,900  Descending Albuquerque Center
Wed 04:27:05 PM 32.0153 -104.9261 278° West 425 489 40,000 50 Climbing Albuquerque Center
Wed 04:28:05 PM 32.0325 -105.0653 279° West 430 495 40,000  Level Albuquerque Center
Wed 04:29:05 PM 32.0517 -105.2017 279° West 430 495 40,000  Level Albuquerque Center
Wed 04:30:05 PM 32.0708 -105.3408 278° West 425 489 40,000  Level Albuquerque Center
Wed 04:31:06 PM 32.0878 -105.4775 279° West 425 489 40,000  Level Albuquerque Center
Wed 04:32:06 PM 32.1064 -105.6144 279° West 425 489 40,000  Level Albuquerque Center
Wed 04:33:05 PM 32.1250 -105.7536 279° West 425 489 40,000 -50 Level Albuquerque Center
Wed 04:34:05 PM 32.1436 -105.8906 278° West 425 489 39,900  Descending Albuquerque Center
Wed 04:35:06 PM 32.1575 -106.0131 279° West 425 489 40,000 50 Climbing Albuquerque Center
Wed 04:36:06 PM 32.1778 -106.1672 279° West 425 489 40,000  Level Albuquerque Center
Wed 04:37:05 PM 32.1936 -106.2869 279° West 425 489 40,000  Level Albuquerque Center
Wed 04:38:05 PM 32.2114 -106.4242 278° West 425 489 40,000  Level Albuquerque Center
Wed 04:39:05 PM 32.2269 -106.5614 280° West 425 489 40,000  Level Albuquerque Center
Wed 04:40:05 PM 32.2486 -106.7011 287° West 425 489 40,000  Level Albuquerque Center
Wed 04:41:05 PM 32.2828 -106.8358 286° West 430 495 40,000  Level Albuquerque Center
Wed 04:42:05 PM 32.3167 -106.9731 286° West 430 495 40,000  Level Albuquerque Center
Wed 04:43:05 PM 32.3503 -107.1081 285° West 430 495 40,000  Level Albuquerque Center
Wed 04:44:05 PM 32.3861 -107.2653 289° West 435 501 40,000  Level Albuquerque Center
Wed 04:45:05 PM 32.4256 -107.4003 287° West 440 506 40,000  Level Albuquerque Center
Wed 04:46:05 PM 32.4611 -107.5406 286° West 440 506 40,000  Level Albuquerque Center
Wed 04:47:06 PM 32.4942 -107.6736 286° West 435 501 40,000 -50 Level Albuquerque Center
Wed 04:48:05 PM 32.5292 -107.8142 288° West 435 501 39,900  Descending Albuquerque Center
Wed 04:49:05 PM 32.5619 -107.9325 287° West 435 501 40,000 50 Climbing Albuquerque Center
Wed 04:50:05 PM 32.5967 -108.0706 287° West 435 501 40,000  Level Albuquerque Center
Wed 04:51:05 PM 32.6311 -108.2089 284° West 435 501 40,000  Level Albuquerque Center
Wed 04:52:05 PM 32.6614 -108.3497 283° West 435 501 40,000  Level Albuquerque Center
Wed 04:53:05 PM 32.6914 -108.5031 284° West 435 501 40,000  Level Albuquerque Center
Wed 04:54:05 PM 32.7192 -108.6392 283° West 435 501 40,000  Level Albuquerque Center
Wed 04:55:06 PM 32.7447 -108.7753 283° West 430 495 40,000  Level Albuquerque Center
Wed 04:56:05 PM 32.7664 -108.8867 283° West 430 495 40,000  Level Albuquerque Center
Wed 04:57:06 PM 32.7956 -109.0378 284° West 430 495 40,000  Level Albuquerque Center
Wed 04:58:05 PM 32.8228 -109.1717 284° West 430 495 40,000  Level Albuquerque Center
Wed 04:59:05 PM 32.8500 -109.3008 283° West 417 480 40,000  Level Albuquerque Center
Wed 05:00:05 PM 32.8750 -109.4325 283° West 412 474 40,000  Level Albuquerque Center
Wed 05:01:05 PM 32.9017 -109.5667 283° West 412 474 40,000  Level Albuquerque Center
Wed 05:02:05 PM 32.9283 -109.7033 283° West 418 481 40,000  Level Albuquerque Center
Wed 05:03:05 PM 32.9550 -109.8375 283° West 418 481 40,000  Level Albuquerque Center
Wed 05:04:06 PM 32.9811 -109.9744 283° West 418 481 40,000  Level Albuquerque Center
Wed 05:05:05 PM 33.0111 -110.1264 282° West 418 481 40,000  Level Albuquerque Center
Wed 05:06:05 PM 33.0350 -110.2633 287° West 423 487 40,000  Level Albuquerque Center
Wed 05:07:06 PM 33.0692 -110.4008 286° West 423 487 40,000  Level Albuquerque Center
Wed 05:08:05 PM 33.1011 -110.5383 285° West 429 494 40,000  Level Albuquerque Center
Wed 05:09:05 PM 33.1328 -110.6783 286° West 434 499 40,000  Level Albuquerque Center
Wed 05:10:05 PM 33.1625 -110.8008 286° West 434 499 40,000  Level Albuquerque Center
Wed 05:11:05 PM 33.2000 -110.9539 286° West 439 505 40,000  Level Albuquerque Center
Wed 05:12:05 PM 33.2331 -111.0942 286° West 439 505 40,000  Level Albuquerque Center
Wed 05:13:05 PM 33.2661 -111.2347 285° West 439 505 40,000  Level Albuquerque Center
Wed 05:14:06 PM 33.2992 -111.3778 285° West 439 505 40,000  Level Albuquerque Center
Wed 05:15:05 PM 33.3297 -111.5183 285° West 439 505 40,000  Level Albuquerque Center
Wed 05:16:05 PM 33.3586 -111.6442 286° West 439 505 40,000  Level Albuquerque Center
Wed 05:17:06 PM 33.3931 -111.7875 284° West 439 505 40,000  Level Albuquerque Center
Wed 05:18:05 PM 33.4233 -111.9286 285° West 439 505 40,000  Level Albuquerque Center
Wed 05:19:05 PM 33.4553 -112.0722 285° West 439 505 40,000  Level Albuquerque Center
Wed 05:20:05 PM 33.4869 -112.2183 285° West 439 505 40,000  Level Albuquerque Center
Wed 05:21:05 PM 33.5222 -112.3722 284° West 439 505 40,000  Level Albuquerque Center
Wed 05:22:06 PM 33.5536 -112.5186 285° West 444 511 40,000  Level Albuquerque Center
Wed 05:23:05 PM 33.5850 -112.6603 284° West 444 511 40,000  Level Albuquerque Center
Wed 05:24:05 PM 33.6161 -112.8067 284° West 444 511 40,000  Level Albuquerque Center
Wed 05:25:05 PM 33.6467 -112.9533 284° West 449 517 40,000  Level Albuquerque Center
Wed 05:26:06 PM 33.6722 -113.0772 285° West 443 510 40,000  Level Albuquerque Center
Wed 05:27:06 PM 33.7050 -113.2219 284° West 437 503 40,000  Level Albuquerque Center
Wed 05:28:05 PM 33.7333 -113.3636 284° West 437 503 40,000  Level Albuquerque Center
Wed 05:29:06 PM 33.7619 -113.4981 284° West 437 503 40,000  Level Albuquerque Center
Wed 05:29:54 PM 33.7889 -113.6294 284° West 435 501 40,000  Level Los Angeles Center
Wed 05:30:54 PM 33.8189 -113.7708 284° West 450 518 40,000  Level Los Angeles Center
Wed 05:31:54 PM 33.8486 -113.9128 284° West 445 512 40,000  Level Los Angeles Center
Wed 05:32:54 PM 33.8781 -114.0519 284° West 445 512 40,000  Level Los Angeles Center
Wed 05:33:54 PM 33.9075 -114.1914 285° West 439 505 40,000  Level Los Angeles Center
Wed 05:34:54 PM 33.9367 -114.3211 282° West 439 505 40,000  Level Los Angeles Center
Wed 05:35:54 PM 33.9617 -114.4608 284° West 434 499 40,000  Level Los Angeles Center
Wed 05:36:54 PM 33.9906 -114.5981 283° West 429 494 40,000  Level Los Angeles Center
Wed 05:37:54 PM 34.0172 -114.7378 284° West 429 494 40,000  Level Los Angeles Center
Wed 05:38:54 PM 34.0436 -114.8703 284° West 429 494 40,000  Level Los Angeles Center
Wed 05:39:54 PM 34.0722 -115.0103 283° West 429 494 40,000  Level Los Angeles Center
Wed 05:40:54 PM 34.0983 -115.1453 284° West 429 494 40,000  Level Los Angeles Center
Wed 05:41:54 PM 34.1267 -115.2806 283° West 424 488 40,000  Level Los Angeles Center
Wed 05:42:54 PM 34.1525 -115.4183 284° West 424 488 40,000  Level Los Angeles Center
Wed 05:43:54 PM 34.1803 -115.5564 282° West 424 488 40,000 -50 Level Los Angeles Center
Wed 05:44:54 PM 34.2058 -115.6967 283° West 430 495 39,900 -50 Descending Los Angeles Center
Wed 05:45:54 PM 34.2333 -115.8372 281° West 430 495 39,900 50 Level Los Angeles Center
Wed 05:46:54 PM 34.2589 -115.9906 283° West 430 495 40,000 50 Climbing Los Angeles Center
Wed 05:47:54 PM 34.2858 -116.1314 282° West 430 495 40,000  Level Los Angeles Center
Wed 05:48:54 PM 34.3108 -116.2747 283° West 430 495 40,000  Level Los Angeles Center
Wed 05:49:54 PM 34.3378 -116.4156 281° West 430 495 40,000  Level Los Angeles Center
Wed 05:50:54 PM 34.3603 -116.5567 284° West 430 495 40,000  Level Los Angeles Center
Wed 05:51:54 PM 34.3889 -116.7003 283° West 430 495 40,000 -550 Level Los Angeles Center
Wed 05:52:54 PM 34.4153 -116.8439 281° West 430 495 38,900 -1,150 Descending Los Angeles Center
Wed 05:53:54 PM 34.4375 -116.9800 283° West 429 494 37,700 -1,450 Descending Los Angeles Center
Wed 05:54:54 PM 34.4633 -117.1189 282° West 424 488 36,000 -1,800 Descending Los Angeles Center
Wed 05:55:54 PM 34.4894 -117.2628 282° West 429 494 34,100 -1,850 Descending Los Angeles Center
Wed 05:56:54 PM 34.5150 -117.4069 282° West 435 501 32,300 -1,450 Descending Los Angeles Center
Wed 05:57:54 PM 34.5406 -117.5486 281° West 435 501 31,200 -1,850 Descending Los Angeles Center
Wed 05:58:54 PM 34.5639 -117.6953 283° West 435 501 28,600 -2,600 Descending Los Angeles Center
Wed 05:59:54 PM 34.5911 -117.8397 282° West 435 501 26,000 -2,700 Descending Los Angeles Center
Wed 06:00:54 PM 34.6161 -117.9839 295° West 435 501 23,200 -2,450 Descending Los Angeles Center
Wed 06:01:54 PM 34.6642 -118.1114 312° West 413 475 21,100 -1,950 Descending Los Angeles Center
Wed 06:02:54 PM 34.7294 -118.1989 313° West 399 459 19,300 -2,000 Descending Los Angeles Center
Wed 06:03:54 PM 34.8069 -118.2994 313° West 404 465 17,100 -2,150 Descending Los Angeles Center
Wed 06:04:54 PM 34.8803 -118.3950 314° West 397 457 15,000 -1,600 Descending Los Angeles Center
Wed 06:05:54 PM 34.9497 -118.4831 314° West 380 437 13,900 -550 Descending Los Angeles Center
Wed 06:06:54 PM 35.0086 -118.5583 318° Northwest 341 392 13,900 -650 Level Los Angeles Center
Wed 06:07:54 PM 35.0719 -118.6289 316° Northwest 315 362 12,600 -1,150 Descending Los Angeles Center
Wed 06:08:54 PM 35.1228 -118.6886 319° Northwest 284 327 11,600 -1,350 Descending Los Angeles Center
Wed 06:09:54 PM 35.1719 -118.7411 302° West 251 289 9,900 -1,500 Descending Los Angeles Center
Wed 06:10:54 PM 35.2039 -118.8031 325° Northwest 227 261 8,600 -1,350 Descending Los Angeles Center
Wed 06:11:54 PM 35.2447 -118.8375 317° Northwest 195 224 7,200 -1,150 Descending Los Angeles Center
Wed 06:12:54 PM 35.2836 -118.8819 317° Northwest 181 208 6,300 -900 Descending Los Angeles Center

Login

Don't have an account? Register now (free) for customized features, flight alerts, and more!